sensor_id;sensor_type;location;lat;lon;timestamp;temperature;humidity
63277;DHT22;49403;51.046;13.780;2023-08-12T00:00:26;22.90;65.80
63277;DHT22;49403;51.046;13.780;2023-08-12T00:00:57;23.00;65.10
63277;DHT22;49403;51.046;13.780;2023-08-12T00:01:28;23.00;65.30
63277;DHT22;49403;51.046;13.780;2023-08-12T00:01:59;23.00;65.20
63277;DHT22;49403;51.046;13.780;2023-08-12T00:02:31;23.00;65.20
63277;DHT22;49403;51.046;13.780;2023-08-12T00:03:02;23.10;65.30
63277;DHT22;49403;51.046;13.780;2023-08-12T00:03:33;23.00;65.30
63277;DHT22;49403;51.046;13.780;2023-08-12T00:04:05;23.00;65.30
63277;DHT22;49403;51.046;13.780;2023-08-12T00:04:36;23.00;65.20
63277;DHT22;49403;51.046;13.780;2023-08-12T00:05:08;22.90;65.10
63277;DHT22;49403;51.046;13.780;2023-08-12T00:05:41;23.00;65.20
63277;DHT22;49403;51.046;13.780;2023-08-12T00:06:13;23.00;65.10
63277;DHT22;49403;51.046;13.780;2023-08-12T00:06:44;23.00;65.10
63277;DHT22;49403;51.046;13.780;2023-08-12T00:07:16;23.10;65.10
63277;DHT22;49403;51.046;13.780;2023-08-12T00:07:48;23.10;65.10
63277;DHT22;49403;51.046;13.780;2023-08-12T00:08:20;23.10;65.10
63277;DHT22;49403;51.046;13.780;2023-08-12T00:08:51;23.10;65.10
63277;DHT22;49403;51.046;13.780;2023-08-12T00:09:22;23.20;65.30
63277;DHT22;49403;51.046;13.780;2023-08-12T00:09:53;23.10;65.20
63277;DHT22;49403;51.046;13.780;2023-08-12T00:10:27;23.00;65.30
63277;DHT22;49403;51.046;13.780;2023-08-12T00:10:59;22.90;65.20
63277;DHT22;49403;51.046;13.780;2023-08-12T00:11:30;23.00;65.40
63277;DHT22;49403;51.046;13.780;2023-08-12T00:12:01;23.00;65.50
63277;DHT22;49403;51.046;13.780;2023-08-12T00:12:33;22.80;65.30
63277;DHT22;49403;51.046;13.780;2023-08-12T00:13:05;22.90;65.50
63277;DHT22;49403;51.046;13.780;2023-08-12T00:13:36;22.90;65.60
63277;DHT22;49403;51.046;13.780;2023-08-12T00:14:07;22.90;65.60
63277;DHT22;49403;51.046;13.780;2023-08-12T00:14:38;22.90;65.80
63277;DHT22;49403;51.046;13.780;2023-08-12T00:15:10;22.90;65.70
63277;DHT22;49403;51.046;13.780;2023-08-12T00:15:41;22.90;65.70
63277;DHT22;49403;51.046;13.780;2023-08-12T00:16:15;21.90;64.70
63277;DHT22;49403;51.046;13.780;2023-08-12T00:16:46;22.90;65.70
63277;DHT22;49403;51.046;13.780;2023-08-12T00:17:17;22.90;65.70
63277;DHT22;49403;51.046;13.780;2023-08-12T00:17:49;22.90;65.80
63277;DHT22;49403;51.046;13.780;2023-08-12T00:18:20;22.90;65.80
63277;DHT22;49403;51.046;13.780;2023-08-12T00:18:51;22.90;65.80
63277;DHT22;49403;51.046;13.780;2023-08-12T00:19:22;22.90;65.80
63277;DHT22;49403;51.046;13.780;2023-08-12T00:19:53;21.90;65.00
63277;DHT22;49403;51.046;13.780;2023-08-12T00:20:25;22.90;65.90
63277;DHT22;49403;51.046;13.780;2023-08-12T00:20:56;22.80;65.80
63277;DHT22;49403;51.046;13.780;2023-08-12T00:21:28;22.90;65.90
63277;DHT22;49403;51.046;13.780;2023-08-12T00:21:59;22.90;65.90
63277;DHT22;49403;51.046;13.780;2023-08-12T00:22:30;22.90;65.90
63277;DHT22;49403;51.046;13.780;2023-08-12T00:23:02;22.30;65.50
63277;DHT22;49403;51.046;13.780;2023-08-12T00:23:38;22.90;66.10
63277;DHT22;49403;51.046;13.780;2023-08-12T00:24:11;22.90;67.10
63277;DHT22;49403;51.046;13.780;2023-08-12T00:24:42;22.90;66.40
63277;DHT22;49403;51.046;13.780;2023-08-12T00:25:14;22.90;66.60
63277;DHT22;49403;51.046;13.780;2023-08-12T00:25:45;22.90;66.60
63277;DHT22;49403;51.046;13.780;2023-08-12T00:26:17;22.90;66.60
63277;DHT22;49403;51.046;13.780;2023-08-12T00:26:48;22.90;66.70
63277;DHT22;49403;51.046;13.780;2023-08-12T00:27:20;22.80;66.60
63277;DHT22;49403;51.046;13.780;2023-08-12T00:27:51;22.80;66.60
63277;DHT22;49403;51.046;13.780;2023-08-12T00:28:23;22.80;66.60
63277;DHT22;49403;51.046;13.780;2023-08-12T00:28:54;22.70;66.50
63277;DHT22;49403;51.046;13.780;2023-08-12T00:29:25;22.80;66.50
63277;DHT22;49403;51.046;13.780;2023-08-12T00:29:56;22.90;66.60
63277;DHT22;49403;51.046;13.780;2023-08-12T00:30:27;22.90;66.60
63277;DHT22;49403;51.046;13.780;2023-08-12T00:30:59;22.80;66.50
63277;DHT22;49403;51.046;13.780;2023-08-12T00:31:30;22.90;66.50
63277;DHT22;49403;51.046;13.780;2023-08-12T00:32:01;22.90;66.60
63277;DHT22;49403;51.046;13.780;2023-08-12T00:32:33;22.90;66.50
63277;DHT22;49403;51.046;13.780;2023-08-12T00:33:04;22.90;66.50
63277;DHT22;49403;51.046;13.780;2023-08-12T00:33:35;23.60;67.10
63277;DHT22;49403;51.046;13.780;2023-08-12T00:34:06;22.90;66.30
63277;DHT22;49403;51.046;13.780;2023-08-12T00:34:37;22.80;66.30
63277;DHT22;49403;51.046;13.780;2023-08-12T00:35:09;23.70;67.10
63277;DHT22;49403;51.046;13.780;2023-08-12T00:35:40;22.80;66.20
63277;DHT22;49403;51.046;13.780;2023-08-12T00:36:11;22.80;66.20
63277;DHT22;49403;51.046;13.780;2023-08-12T00:36:42;22.80;66.30
63277;DHT22;49403;51.046;13.780;2023-08-12T00:37:17;22.80;66.30
63277;DHT22;49403;51.046;13.780;2023-08-12T00:37:48;22.80;66.50
63277;DHT22;49403;51.046;13.780;2023-08-12T00:38:19;22.70;66.50
63277;DHT22;49403;51.046;13.780;2023-08-12T00:38:50;22.70;66.50
63277;DHT22;49403;51.046;13.780;2023-08-12T00:39:21;22.70;66.60
63277;DHT22;49403;51.046;13.780;2023-08-12T00:39:53;22.70;66.50
63277;DHT22;49403;51.046;13.780;2023-08-12T00:40:27;22.70;66.50
63277;DHT22;49403;51.046;13.780;2023-08-12T00:40:58;23.50;67.40
63277;DHT22;49403;51.046;13.780;2023-08-12T00:41:30;22.80;66.70
63277;DHT22;49403;51.046;13.780;2023-08-12T00:42:01;22.70;66.50
63277;DHT22;49403;51.046;13.780;2023-08-12T00:42:32;22.60;66.40
63277;DHT22;49403;51.046;13.780;2023-08-12T00:43:04;22.80;66.40
63277;DHT22;49403;51.046;13.780;2023-08-12T00:43:35;22.80;66.30
63277;DHT22;49403;51.046;13.780;2023-08-12T00:44:06;23.00;66.60
63277;DHT22;49403;51.046;13.780;2023-08-12T00:44:37;22.80;66.50
63277;DHT22;49403;51.046;13.780;2023-08-12T00:45:12;22.90;66.60
63277;DHT22;49403;51.046;13.780;2023-08-12T00:45:44;22.80;66.50
63277;DHT22;49403;51.046;13.780;2023-08-12T00:46:16;22.90;66.50
63277;DHT22;49403;51.046;13.780;2023-08-12T00:46:48;22.70;67.00
63277;DHT22;49403;51.046;13.780;2023-08-12T00:47:20;22.80;66.40
63277;DHT22;49403;51.046;13.780;2023-08-12T00:47:52;22.80;66.40
63277;DHT22;49403;51.046;13.780;2023-08-12T00:48:23;22.80;66.40
63277;DHT22;49403;51.046;13.780;2023-08-12T00:48:54;22.80;66.50
63277;DHT22;49403;51.046;13.780;2023-08-12T00:49:27;22.90;66.60
63277;DHT22;49403;51.046;13.780;2023-08-12T00:49:58;22.80;66.50
63277;DHT22;49403;51.046;13.780;2023-08-12T00:50:30;22.90;66.50
63277;DHT22;49403;51.046;13.780;2023-08-12T00:51:02;22.90;66.50
63277;DHT22;49403;51.046;13.780;2023-08-12T00:51:35;22.80;66.40
63277;DHT22;49403;51.046;13.780;2023-08-12T00:52:06;22.90;66.50
63277;DHT22;49403;51.046;13.780;2023-08-12T00:52:38;22.90;66.60
63277;DHT22;49403;51.046;13.780;2023-08-12T00:53:10;22.90;66.60
63277;DHT22;49403;51.046;13.780;2023-08-12T00:53:43;22.90;66.50
63277;DHT22;49403;51.046;13.780;2023-08-12T00:54:18;22.90;66.40
63277;DHT22;49403;51.046;13.780;2023-08-12T00:54:52;22.90;66.30
63277;DHT22;49403;51.046;13.780;2023-08-12T00:55:24;22.90;66.50
63277;DHT22;49403;51.046;13.780;2023-08-12T00:55:55;22.90;66.60
63277;DHT22;49403;51.046;13.780;2023-08-12T00:56:27;22.90;66.70
63277;DHT22;49403;51.046;13.780;2023-08-12T00:56:58;22.80;66.70
63277;DHT22;49403;51.046;13.780;2023-08-12T00:57:30;22.80;67.00
63277;DHT22;49403;51.046;13.780;2023-08-12T00:58:02;22.80;67.50
63277;DHT22;49403;51.046;13.780;2023-08-12T00:58:33;22.70;67.50
63277;DHT22;49403;51.046;13.780;2023-08-12T00:59:05;22.70;67.60
63277;DHT22;49403;51.046;13.780;2023-08-12T00:59:38;22.70;67.60
63277;DHT22;49403;51.046;13.780;2023-08-12T01:00:11;22.80;68.00
63277;DHT22;49403;51.046;13.780;2023-08-12T01:00:42;22.60;67.90
63277;DHT22;49403;51.046;13.780;2023-08-12T01:01:14;22.60;68.00
63277;DHT22;49403;51.046;13.780;2023-08-12T01:01:46;21.90;67.40
63277;DHT22;49403;51.046;13.780;2023-08-12T01:02:18;22.50;68.30
63277;DHT22;49403;51.046;13.780;2023-08-12T01:02:49;22.40;68.60
63277;DHT22;49403;51.046;13.780;2023-08-12T01:03:21;22.40;68.80
63277;DHT22;49403;51.046;13.780;2023-08-12T01:03:52;22.40;69.00
63277;DHT22;49403;51.046;13.780;2023-08-12T01:04:23;22.40;69.10
63277;DHT22;49403;51.046;13.780;2023-08-12T01:04:55;22.40;69.10
63277;DHT22;49403;51.046;13.780;2023-08-12T01:05:26;22.30;69.10
63277;DHT22;49403;51.046;13.780;2023-08-12T01:05:57;21.10;67.90
63277;DHT22;49403;51.046;13.780;2023-08-12T01:06:28;22.30;69.30
63277;DHT22;49403;51.046;13.780;2023-08-12T01:06:59;22.30;69.30
63277;DHT22;49403;51.046;13.780;2023-08-12T01:07:31;22.30;69.30
63277;DHT22;49403;51.046;13.780;2023-08-12T01:08:02;23.40;70.40
63277;DHT22;49403;51.046;13.780;2023-08-12T01:08:35;22.30;69.40
63277;DHT22;49403;51.046;13.780;2023-08-12T01:09:07;22.30;69.30
63277;DHT22;49403;51.046;13.780;2023-08-12T01:09:38;22.20;69.30
63277;DHT22;49403;51.046;13.780;2023-08-12T01:10:10;22.30;69.50
63277;DHT22;49403;51.046;13.780;2023-08-12T01:10:49;22.30;69.50
63277;DHT22;49403;51.046;13.780;2023-08-12T01:11:32;22.20;69.30
63277;DHT22;49403;51.046;13.780;2023-08-12T01:12:13;22.20;69.30
63277;DHT22;49403;51.046;13.780;2023-08-12T01:13:03;22.20;69.30
63277;DHT22;49403;51.046;13.780;2023-08-12T01:13:49;22.20;69.30
63277;DHT22;49403;51.046;13.780;2023-08-12T01:14:44;22.20;69.50
63277;DHT22;49403;51.046;13.780;2023-08-12T01:15:19;22.40;70.00
63277;DHT22;49403;51.046;13.780;2023-08-12T01:15:53;22.10;69.80
63277;DHT22;49403;51.046;13.780;2023-08-12T01:16:32;22.10;69.90
63277;DHT22;49403;51.046;13.780;2023-08-12T01:17:07;22.10;69.60
63277;DHT22;49403;51.046;13.780;2023-08-12T01:17:42;21.80;69.20
63277;DHT22;49403;51.046;13.780;2023-08-12T01:18:14;22.10;69.40
63277;DHT22;49403;51.046;13.780;2023-08-12T01:18:46;22.10;69.40
63277;DHT22;49403;51.046;13.780;2023-08-12T01:19:29;22.20;69.60
63277;DHT22;49403;51.046;13.780;2023-08-12T01:20:01;22.20;69.60
63277;DHT22;49403;51.046;13.780;2023-08-12T01:20:39;22.20;69.60
63277;DHT22;49403;51.046;13.780;2023-08-12T01:21:16;22.20;69.50
63277;DHT22;49403;51.046;13.780;2023-08-12T01:21:49;22.20;69.40
63277;DHT22;49403;51.046;13.780;2023-08-12T01:22:23;22.20;69.20
63277;DHT22;49403;51.046;13.780;2023-08-12T01:23:14;22.30;69.30
63277;DHT22;49403;51.046;13.780;2023-08-12T01:23:45;22.30;69.30
63277;DHT22;49403;51.046;13.780;2023-08-12T01:24:17;22.30;69.60
63277;DHT22;49403;51.046;13.780;2023-08-12T01:24:51;22.20;69.50
63277;DHT22;49403;51.046;13.780;2023-08-12T01:25:24;22.10;69.40
63277;DHT22;49403;51.046;13.780;2023-08-12T01:25:56;22.20;69.60
63277;DHT22;49403;51.046;13.780;2023-08-12T01:26:30;22.20;69.60
63277;DHT22;49403;51.046;13.780;2023-08-12T01:27:01;22.10;69.50
63277;DHT22;49403;51.046;13.780;2023-08-12T01:27:37;22.20;69.60
63277;DHT22;49403;51.046;13.780;2023-08-12T01:28:09;22.20;70.10
63277;DHT22;49403;51.046;13.780;2023-08-12T01:28:40;22.20;70.20
63277;DHT22;49403;51.046;13.780;2023-08-12T01:29:11;21.50;69.50
63277;DHT22;49403;51.046;13.780;2023-08-12T01:29:45;22.20;70.30
63277;DHT22;49403;51.046;13.780;2023-08-12T01:30:19;22.10;70.20
63277;DHT22;49403;51.046;13.780;2023-08-12T01:30:51;22.10;70.10
63277;DHT22;49403;51.046;13.780;2023-08-12T01:31:34;22.10;69.90
63277;DHT22;49403;51.046;13.780;2023-08-12T01:33:15;21.60;69.20
63277;DHT22;49403;51.046;13.780;2023-08-12T01:33:55;22.20;69.70
63277;DHT22;49403;51.046;13.780;2023-08-12T01:34:47;22.30;69.80
63277;DHT22;49403;51.046;13.780;2023-08-12T01:35:29;22.20;69.50
63277;DHT22;49403;51.046;13.780;2023-08-12T01:36:15;22.20;69.60
63277;DHT22;49403;51.046;13.780;2023-08-12T01:36:54;22.30;69.80
63277;DHT22;49403;51.046;13.780;2023-08-12T01:37:28;22.20;69.70
63277;DHT22;49403;51.046;13.780;2023-08-12T01:38:02;22.20;69.70
63277;DHT22;49403;51.046;13.780;2023-08-12T01:38:34;22.20;69.60
63277;DHT22;49403;51.046;13.780;2023-08-12T01:39:07;22.30;69.60
63277;DHT22;49403;51.046;13.780;2023-08-12T01:39:40;22.30;69.50
63277;DHT22;49403;51.046;13.780;2023-08-12T01:40:14;22.20;69.40
63277;DHT22;49403;51.046;13.780;2023-08-12T01:40:47;22.30;69.50
63277;DHT22;49403;51.046;13.780;2023-08-12T01:41:20;22.30;69.50
63277;DHT22;49403;51.046;13.780;2023-08-12T01:41:52;23.70;70.80
63277;DHT22;49403;51.046;13.780;2023-08-12T01:42:25;22.30;69.50
63277;DHT22;49403;51.046;13.780;2023-08-12T01:42:56;22.30;69.50
63277;DHT22;49403;51.046;13.780;2023-08-12T01:43:28;22.30;69.50
63277;DHT22;49403;51.046;13.780;2023-08-12T01:44:01;22.30;69.40
63277;DHT22;49403;51.046;13.780;2023-08-12T01:44:32;22.30;69.40
63277;DHT22;49403;51.046;13.780;2023-08-12T01:45:07;23.40;70.50
63277;DHT22;49403;51.046;13.780;2023-08-12T01:45:38;22.30;69.30
63277;DHT22;49403;51.046;13.780;2023-08-12T01:46:09;22.40;69.40
63277;DHT22;49403;51.046;13.780;2023-08-12T01:46:43;22.30;69.30
63277;DHT22;49403;51.046;13.780;2023-08-12T01:47:15;22.30;69.40
63277;DHT22;49403;51.046;13.780;2023-08-12T01:47:46;22.50;69.40
63277;DHT22;49403;51.046;13.780;2023-08-12T01:48:20;22.40;68.60
63277;DHT22;49403;51.046;13.780;2023-08-12T01:48:53;22.40;68.50
63277;DHT22;49403;51.046;13.780;2023-08-12T01:49:25;22.40;68.40
63277;DHT22;49403;51.046;13.780;2023-08-12T01:49:56;22.40;68.50
63277;DHT22;49403;51.046;13.780;2023-08-12T01:50:27;22.40;68.60
63277;DHT22;49403;51.046;13.780;2023-08-12T01:50:59;22.40;68.80
63277;DHT22;49403;51.046;13.780;2023-08-12T01:51:30;22.50;69.00
63277;DHT22;49403;51.046;13.780;2023-08-12T01:52:01;22.40;68.80
63277;DHT22;49403;51.046;13.780;2023-08-12T01:52:32;22.40;68.80
63277;DHT22;49403;51.046;13.780;2023-08-12T01:53:04;22.40;68.80
63277;DHT22;49403;51.046;13.780;2023-08-12T01:53:35;22.40;68.80
63277;DHT22;49403;51.046;13.780;2023-08-12T01:54:06;22.40;68.70
63277;DHT22;49403;51.046;13.780;2023-08-12T01:54:37;22.40;68.50
63277;DHT22;49403;51.046;13.780;2023-08-12T01:55:09;22.40;68.50
63277;DHT22;49403;51.046;13.780;2023-08-12T01:55:43;22.30;68.60
63277;DHT22;49403;51.046;13.780;2023-08-12T01:56:15;22.40;68.50
63277;DHT22;49403;51.046;13.780;2023-08-12T01:56:46;22.40;68.60
63277;DHT22;49403;51.046;13.780;2023-08-12T01:57:17;22.50;68.80
63277;DHT22;49403;51.046;13.780;2023-08-12T01:57:49;22.50;68.80
63277;DHT22;49403;51.046;13.780;2023-08-12T01:58:20;22.50;68.80
63277;DHT22;49403;51.046;13.780;2023-08-12T01:58:51;22.50;68.80
63277;DHT22;49403;51.046;13.780;2023-08-12T01:59:22;21.20;67.50
63277;DHT22;49403;51.046;13.780;2023-08-12T01:59:53;22.50;68.70
63277;DHT22;49403;51.046;13.780;2023-08-12T02:00:24;23.30;69.40
63277;DHT22;49403;51.046;13.780;2023-08-12T02:00:56;22.50;68.70
63277;DHT22;49403;51.046;13.780;2023-08-12T02:01:27;22.50;68.60
63277;DHT22;49403;51.046;13.780;2023-08-12T02:02:01;22.50;68.60
63277;DHT22;49403;51.046;13.780;2023-08-12T02:02:32;22.50;68.70
63277;DHT22;49403;51.046;13.780;2023-08-12T02:03:03;22.50;68.80
63277;DHT22;49403;51.046;13.780;2023-08-12T02:03:35;22.50;68.80
63277;DHT22;49403;51.046;13.780;2023-08-12T02:04:09;22.50;68.80
63277;DHT22;49403;51.046;13.780;2023-08-12T02:04:41;22.60;69.00
63277;DHT22;49403;51.046;13.780;2023-08-12T02:05:14;22.50;69.00
63277;DHT22;49403;51.046;13.780;2023-08-12T02:05:46;22.60;69.10
63277;DHT22;49403;51.046;13.780;2023-08-12T02:06:17;22.50;69.00
63277;DHT22;49403;51.046;13.780;2023-08-12T02:06:48;22.50;69.20
63277;DHT22;49403;51.046;13.780;2023-08-12T02:07:23;22.50;69.30
63277;DHT22;49403;51.046;13.780;2023-08-12T02:07:54;22.50;69.40
63277;DHT22;49403;51.046;13.780;2023-08-12T02:08:25;22.40;69.30
63277;DHT22;49403;51.046;13.780;2023-08-12T02:08:56;22.40;69.40
63277;DHT22;49403;51.046;13.780;2023-08-12T02:09:27;22.40;70.30
63277;DHT22;49403;51.046;13.780;2023-08-12T02:10:01;22.40;69.10
63277;DHT22;49403;51.046;13.780;2023-08-12T02:10:32;22.40;69.00
63277;DHT22;49403;51.046;13.780;2023-08-12T02:11:03;22.40;68.70
63277;DHT22;49403;51.046;13.780;2023-08-12T02:11:34;22.30;68.60
63277;DHT22;49403;51.046;13.780;2023-08-12T02:12:06;22.30;68.60
63277;DHT22;49403;51.046;13.780;2023-08-12T02:12:37;22.70;69.00
63277;DHT22;49403;51.046;13.780;2023-08-12T02:13:08;22.30;68.60
63277;DHT22;49403;51.046;13.780;2023-08-12T02:13:39;22.30;68.60
63277;DHT22;49403;51.046;13.780;2023-08-12T02:14:11;23.00;69.20
63277;DHT22;49403;51.046;13.780;2023-08-12T02:14:42;22.30;68.50
63277;DHT22;49403;51.046;13.780;2023-08-12T02:15:13;22.30;68.40
63277;DHT22;49403;51.046;13.780;2023-08-12T02:15:44;22.20;69.20
63277;DHT22;49403;51.046;13.780;2023-08-12T02:16:16;22.00;68.10
63277;DHT22;49403;51.046;13.780;2023-08-12T02:16:47;22.20;68.40
63277;DHT22;49403;51.046;13.780;2023-08-12T02:17:18;22.20;68.50
63277;DHT22;49403;51.046;13.780;2023-08-12T02:17:49;22.20;69.00
63277;DHT22;49403;51.046;13.780;2023-08-12T02:18:20;22.20;68.80
63277;DHT22;49403;51.046;13.780;2023-08-12T02:18:51;22.30;69.00
63277;DHT22;49403;51.046;13.780;2023-08-12T02:19:23;22.20;68.80
63277;DHT22;49403;51.046;13.780;2023-08-12T02:19:54;22.20;69.00
63277;DHT22;49403;51.046;13.780;2023-08-12T02:20:25;22.20;69.00
63277;DHT22;49403;51.046;13.780;2023-08-12T02:20:56;22.10;68.60
63277;DHT22;49403;51.046;13.780;2023-08-12T02:21:27;22.20;68.80
63277;DHT22;49403;51.046;13.780;2023-08-12T02:21:59;22.10;68.80
63277;DHT22;49403;51.046;13.780;2023-08-12T02:22:31;22.10;68.80
63277;DHT22;49403;51.046;13.780;2023-08-12T02:23:02;22.10;69.50
63277;DHT22;49403;51.046;13.780;2023-08-12T02:23:33;22.10;68.90
63277;DHT22;49403;51.046;13.780;2023-08-12T02:24:05;22.10;69.30
63277;DHT22;49403;51.046;13.780;2023-08-12T02:24:36;22.30;69.60
63277;DHT22;49403;51.046;13.780;2023-08-12T02:25:07;22.10;69.30
63277;DHT22;49403;51.046;13.780;2023-08-12T02:25:39;22.10;69.40
63277;DHT22;49403;51.046;13.780;2023-08-12T02:26:10;22.10;69.30
63277;DHT22;49403;51.046;13.780;2023-08-12T02:26:41;22.10;69.40
63277;DHT22;49403;51.046;13.780;2023-08-12T02:27:12;22.20;69.50
63277;DHT22;49403;51.046;13.780;2023-08-12T02:27:43;22.10;69.10
63277;DHT22;49403;51.046;13.780;2023-08-12T02:28:15;22.10;68.80
63277;DHT22;49403;51.046;13.780;2023-08-12T02:28:46;22.10;69.00
63277;DHT22;49403;51.046;13.780;2023-08-12T02:29:17;22.10;68.90
63277;DHT22;49403;51.046;13.780;2023-08-12T02:29:48;22.20;69.10
63277;DHT22;49403;51.046;13.780;2023-08-12T02:30:19;21.70;68.60
63277;DHT22;49403;51.046;13.780;2023-08-12T02:30:51;22.20;68.90
63277;DHT22;49403;51.046;13.780;2023-08-12T02:31:22;22.20;68.50
63277;DHT22;49403;51.046;13.780;2023-08-12T02:31:53;22.20;68.70
63277;DHT22;49403;51.046;13.780;2023-08-12T02:32:24;22.10;68.60
63277;DHT22;49403;51.046;13.780;2023-08-12T02:32:55;22.10;68.60
63277;DHT22;49403;51.046;13.780;2023-08-12T02:33:27;22.10;68.70
63277;DHT22;49403;51.046;13.780;2023-08-12T02:33:58;22.10;68.80
63277;DHT22;49403;51.046;13.780;2023-08-12T02:34:29;22.10;68.90
63277;DHT22;49403;51.046;13.780;2023-08-12T02:35:00;22.10;69.20
63277;DHT22;49403;51.046;13.780;2023-08-12T02:35:32;22.00;69.00
63277;DHT22;49403;51.046;13.780;2023-08-12T02:36:04;22.00;69.00
63277;DHT22;49403;51.046;13.780;2023-08-12T02:36:35;22.00;69.20
63277;DHT22;49403;51.046;13.780;2023-08-12T02:37:06;22.00;69.20
63277;DHT22;49403;51.046;13.780;2023-08-12T02:37:37;22.00;69.10
63277;DHT22;49403;51.046;13.780;2023-08-12T02:38:08;22.00;69.30
63277;DHT22;49403;51.046;13.780;2023-08-12T02:38:40;21.90;69.10
63277;DHT22;49403;51.046;13.780;2023-08-12T02:39:11;21.90;68.90
63277;DHT22;49403;51.046;13.780;2023-08-12T02:39:43;22.00;69.10
63277;DHT22;49403;51.046;13.780;2023-08-12T02:40:14;22.00;69.00
63277;DHT22;49403;51.046;13.780;2023-08-12T02:40:48;22.00;68.90
63277;DHT22;49403;51.046;13.780;2023-08-12T02:41:20;21.90;68.70
63277;DHT22;49403;51.046;13.780;2023-08-12T02:41:51;22.00;68.90
63277;DHT22;49403;51.046;13.780;2023-08-12T02:42:22;21.90;68.80
63277;DHT22;49403;51.046;13.780;2023-08-12T02:42:53;22.00;69.00
63277;DHT22;49403;51.046;13.780;2023-08-12T02:43:24;21.90;68.80
63277;DHT22;49403;51.046;13.780;2023-08-12T02:43:56;21.90;69.00
63277;DHT22;49403;51.046;13.780;2023-08-12T02:44:28;21.90;69.00
63277;DHT22;49403;51.046;13.780;2023-08-12T02:44:59;21.80;68.90
63277;DHT22;49403;51.046;13.780;2023-08-12T02:45:30;21.80;69.00
63277;DHT22;49403;51.046;13.780;2023-08-12T02:46:02;21.80;69.10
63277;DHT22;49403;51.046;13.780;2023-08-12T02:46:33;21.80;69.20
63277;DHT22;49403;51.046;13.780;2023-08-12T02:47:04;21.80;69.20
63277;DHT22;49403;51.046;13.780;2023-08-12T02:47:36;21.80;69.20
63277;DHT22;49403;51.046;13.780;2023-08-12T02:48:07;22.90;70.30
63277;DHT22;49403;51.046;13.780;2023-08-12T02:48:38;21.70;69.20
63277;DHT22;49403;51.046;13.780;2023-08-12T02:49:09;21.70;69.20
63277;DHT22;49403;51.046;13.780;2023-08-12T02:49:41;21.70;69.20
63277;DHT22;49403;51.046;13.780;2023-08-12T02:50:12;21.70;69.30
63277;DHT22;49403;51.046;13.780;2023-08-12T02:50:43;21.70;69.50
63277;DHT22;49403;51.046;13.780;2023-08-12T02:51:14;21.60;69.40
63277;DHT22;49403;51.046;13.780;2023-08-12T02:51:45;21.60;69.40
63277;DHT22;49403;51.046;13.780;2023-08-12T02:52:16;21.70;69.50
63277;DHT22;49403;51.046;13.780;2023-08-12T02:52:47;21.60;69.60
63277;DHT22;49403;51.046;13.780;2023-08-12T02:53:18;21.60;69.50
63277;DHT22;49403;51.046;13.780;2023-08-12T02:53:50;21.60;69.60
63277;DHT22;49403;51.046;13.780;2023-08-12T02:54:21;21.60;69.60
63277;DHT22;49403;51.046;13.780;2023-08-12T02:54:52;21.60;69.70
63277;DHT22;49403;51.046;13.780;2023-08-12T02:55:23;21.60;69.80
63277;DHT22;49403;51.046;13.780;2023-08-12T02:55:54;21.60;69.70
63277;DHT22;49403;51.046;13.780;2023-08-12T02:56:26;21.60;69.60
63277;DHT22;49403;51.046;13.780;2023-08-12T02:56:57;21.70;69.70
63277;DHT22;49403;51.046;13.780;2023-08-12T02:57:28;21.60;69.70
63277;DHT22;49403;51.046;13.780;2023-08-12T02:58:00;21.30;69.30
63277;DHT22;49403;51.046;13.780;2023-08-12T02:58:31;21.60;69.70
63277;DHT22;49403;51.046;13.780;2023-08-12T02:59:03;21.50;69.70
63277;DHT22;49403;51.046;13.780;2023-08-12T02:59:34;21.50;69.70
63277;DHT22;49403;51.046;13.780;2023-08-12T03:00:05;21.50;69.90
63277;DHT22;49403;51.046;13.780;2023-08-12T03:00:41;21.50;69.80
63277;DHT22;49403;51.046;13.780;2023-08-12T03:01:15;22.50;70.70
63277;DHT22;49403;51.046;13.780;2023-08-12T03:01:47;21.50;69.90
63277;DHT22;49403;51.046;13.780;2023-08-12T03:02:18;21.50;70.00
63277;DHT22;49403;51.046;13.780;2023-08-12T03:02:49;21.50;69.80
63277;DHT22;49403;51.046;13.780;2023-08-12T03:03:20;21.50;69.90
63277;DHT22;49403;51.046;13.780;2023-08-12T03:03:52;21.50;69.90
63277;DHT22;49403;51.046;13.780;2023-08-12T03:04:23;21.50;70.00
63277;DHT22;49403;51.046;13.780;2023-08-12T03:04:55;21.50;70.00
63277;DHT22;49403;51.046;13.780;2023-08-12T03:05:26;21.50;70.00
63277;DHT22;49403;51.046;13.780;2023-08-12T03:05:57;20.20;68.60
63277;DHT22;49403;51.046;13.780;2023-08-12T03:06:29;21.50;70.00
63277;DHT22;49403;51.046;13.780;2023-08-12T03:07:00;21.50;69.90
63277;DHT22;49403;51.046;13.780;2023-08-12T03:07:31;22.60;71.00
63277;DHT22;49403;51.046;13.780;2023-08-12T03:08:02;21.50;69.80
63277;DHT22;49403;51.046;13.780;2023-08-12T03:08:34;21.50;70.00
63277;DHT22;49403;51.046;13.780;2023-08-12T03:09:05;22.00;70.70
63277;DHT22;49403;51.046;13.780;2023-08-12T03:09:37;21.50;70.00
63277;DHT22;49403;51.046;13.780;2023-08-12T03:10:08;21.50;70.00
63277;DHT22;49403;51.046;13.780;2023-08-12T03:10:40;21.50;70.10
63277;DHT22;49403;51.046;13.780;2023-08-12T03:11:11;21.50;69.90
63277;DHT22;49403;51.046;13.780;2023-08-12T03:11:42;21.70;70.20
63277;DHT22;49403;51.046;13.780;2023-08-12T03:12:13;21.50;70.00
63277;DHT22;49403;51.046;13.780;2023-08-12T03:12:45;21.80;70.30
63277;DHT22;49403;51.046;13.780;2023-08-12T03:13:16;21.50;70.10
63277;DHT22;49403;51.046;13.780;2023-08-12T03:13:47;21.50;70.10
63277;DHT22;49403;51.046;13.780;2023-08-12T03:14:18;21.50;70.80
63277;DHT22;49403;51.046;13.780;2023-08-12T03:14:49;21.30;70.00
63277;DHT22;49403;51.046;13.780;2023-08-12T03:15:20;21.50;70.20
63277;DHT22;49403;51.046;13.780;2023-08-12T03:15:51;21.60;70.30
63277;DHT22;49403;51.046;13.780;2023-08-12T03:16:23;22.20;70.80
63277;DHT22;49403;51.046;13.780;2023-08-12T03:16:54;21.60;70.30
63277;DHT22;49403;51.046;13.780;2023-08-12T03:17:25;21.60;70.40
63277;DHT22;49403;51.046;13.780;2023-08-12T03:17:56;22.10;70.70
63277;DHT22;49403;51.046;13.780;2023-08-12T03:18:28;21.60;69.90
63277;DHT22;49403;51.046;13.780;2023-08-12T03:18:59;21.60;69.90
63277;DHT22;49403;51.046;13.780;2023-08-12T03:19:30;21.60;70.00
63277;DHT22;49403;51.046;13.780;2023-08-12T03:20:01;22.10;70.40
63277;DHT22;49403;51.046;13.780;2023-08-12T03:20:36;21.60;69.90
63277;DHT22;49403;51.046;13.780;2023-08-12T03:21:08;22.60;70.80
63277;DHT22;49403;51.046;13.780;2023-08-12T03:21:39;21.60;69.70